地図

経路データ

SID SEASON NUMBER BASIN SUBBASIN NAME ISO_TIME NATURE LAT LON WMO_WIND WMO_PRES WMO_AGENCY TRACK_TYPE DIST2LAND LANDFALL IFLAG USA_AGENCY USA_ATCF_ID USA_LAT USA_LON USA_RECORD USA_STATUS USA_WIND USA_PRES USA_SSHS USA_R34_NE USA_R34_SE USA_R34_SW USA_R34_NW USA_R50_NE USA_R50_SE USA_R50_SW USA_R50_NW USA_R64_NE USA_R64_SE USA_R64_SW USA_R64_NW USA_POCI USA_ROCI USA_RMW USA_EYE TOKYO_LAT TOKYO_LON TOKYO_GRADE TOKYO_WIND TOKYO_PRES TOKYO_R50_DIR TOKYO_R50_LONG TOKYO_R50_SHORT TOKYO_R30_DIR TOKYO_R30_LONG TOKYO_R30_SHORT TOKYO_LAND CMA_LAT CMA_LON CMA_CAT CMA_WIND CMA_PRES HKO_LAT HKO_LON HKO_CAT HKO_WIND HKO_PRES NEWDELHI_LAT NEWDELHI_LON NEWDELHI_GRADE NEWDELHI_WIND NEWDELHI_PRES NEWDELHI_CI NEWDELHI_DP NEWDELHI_POCI REUNION_LAT REUNION_LON REUNION_TYPE REUNION_WIND REUNION_PRES REUNION_TNUM REUNION_CI REUNION_RMW REUNION_R34_NE REUNION_R34_SE REUNION_R34_SW REUNION_R34_NW REUNION_R50_NE REUNION_R50_SE REUNION_R50_SW REUNION_R50_NW REUNION_R64_NE REUNION_R64_SE REUNION_R64_SW REUNION_R64_NW BOM_LAT BOM_LON BOM_TYPE BOM_WIND BOM_PRES BOM_TNUM BOM_CI BOM_RMW BOM_R34_NE BOM_R34_SE BOM_R34_SW BOM_R34_NW BOM_R50_NE BOM_R50_SE BOM_R50_SW BOM_R50_NW BOM_R64_NE BOM_R64_SE BOM_R64_SW BOM_R64_NW BOM_ROCI BOM_POCI BOM_EYE BOM_POS_METHOD BOM_PRES_METHOD NADI_LAT NADI_LON NADI_CAT NADI_WIND NADI_PRES WELLINGTON_LAT WELLINGTON_LON WELLINGTON_WIND WELLINGTON_PRES DS824_LAT DS824_LON DS824_STAGE DS824_WIND DS824_PRES TD9636_LAT TD9636_LON TD9636_STAGE TD9636_WIND TD9636_PRES TD9635_LAT TD9635_LON TD9635_WIND TD9635_PRES TD9635_ROCI NEUMANN_LAT NEUMANN_LON NEUMANN_CLASS NEUMANN_WIND NEUMANN_PRES MLC_LAT MLC_LON MLC_CLASS MLC_WIND MLC_PRES USA_GUST BOM_GUST BOM_GUST_PER REUNION_GUST REUNION_GUST_PER USA_SEAHGT USA_SEARAD_NE USA_SEARAD_SE USA_SEARAD_SW USA_SEARAD_NW STORM_SPEED STORM_DIR
1903060S13057 1903 19 SI MM NOT_NAMED 1903-03-01 06:00:00 NR -13.4000 57.4000 reunion main 749 749 _____O________ -1 -13.4000 57.4000 99 9.90000 1 0
1903060S13057 1903 19 SI MM NOT_NAMED 1903-03-01 09:00:00 NR -13.3407 57.3724 main 761 761 _____P________ -1 -13.3407 57.3724 99 1 327
1903060S13057 1903 19 SI MM NOT_NAMED 1903-03-01 12:00:00 NR -13.2894 57.3343 main 761 761 _____P________ -1 -13.2894 57.3343 99 1 311
1903060S13057 1903 19 SI MM NOT_NAMED 1903-03-01 15:00:00 NR -13.2542 57.2754 main 761 756 _____P________ -1 -13.2542 57.2754 99 2 288
1903060S13057 1903 19 SI MM NOT_NAMED 1903-03-01 18:00:00 NR -13.2432 57.1851 main 756 742 _____P________ -1 -13.2432 57.1851 99 2 267
1903060S13057 1903 19 SI MM NOT_NAMED 1903-03-01 21:00:00 NR -13.2643 57.0531 main 742 722 _____P________ -1 -13.2643 57.0531 99 3 255
1903060S13057 1903 19 SI MM NOT_NAMED 1903-03-02 00:00:00 NR -13.3255 56.8686 main 722 687 _____P________ -1 -13.3255 56.8686 99 5 248
1903060S13057 1903 19 SI MM NOT_NAMED 1903-03-02 03:00:00 NR -13.4348 56.6212 main 687 650 _____P________ -1 -13.4348 56.6212 99 6 244
1903060S13057 1903 19 SI MM NOT_NAMED 1903-03-02 06:00:00 NR -13.6000 56.3000 reunion main 650 602 _____O________ -1 -13.6000 56.3000 99 9.90000 8 241
1903060S13057 1903 19 SI MM NOT_NAMED 1903-03-02 09:00:00 NR -13.8269 55.8996 main 602 552 _____P________ -1 -13.8269 55.8996 99 10 239
1903060S13057 1903 19 SI MM NOT_NAMED 1903-03-02 12:00:00 NR -14.1138 55.4367 main 541 492 _____P________ -1 -14.1138 55.4367 99 11 236
1903060S13057 1903 19 SI MM NOT_NAMED 1903-03-02 15:00:00 NR -14.4568 54.9336 main 479 421 _____P________ -1 -14.4568 54.9336 99 12 233
1903060S13057 1903 19 SI MM NOT_NAMED 1903-03-02 18:00:00 NR -14.8526 54.4125 main 420 364 _____P________ -1 -14.8526 54.4125 99 13 230
1903060S13057 1903 19 SI MM NOT_NAMED 1903-03-02 21:00:00 NR -15.2979 53.8959 main 364 313 _____P________ -1 -15.2979 53.8959 99 14 226
1903060S13057 1903 19 SI MM NOT_NAMED 1903-03-03 00:00:00 NR -15.7894 53.4063 main 313 282 _____P________ -1 -15.7894 53.4063 99 14 221
1903060S13057 1903 19 SI MM NOT_NAMED 1903-03-03 03:00:00 NR -16.3243 52.9667 main 285 269 _____P________ -1 -16.3243 52.9667 99 14 215
1903060S13057 1903 19 SI MM NOT_NAMED 1903-03-03 06:00:00 NR -16.9000 52.6000 reunion main 274 269 _____O________ -1 -16.9000 52.6000 99 9.90000 13 206
1903060S13057 1903 19 SI MM NOT_NAMED 1903-03-03 09:00:00 NR -17.4954 52.3594 main 287 276 _____P________ -1 -17.4954 52.3594 99 13 198
1903060S13057 1903 19 SI MM NOT_NAMED 1903-03-03 12:00:00 NR -18.1405 52.1832 main 289 283 _____P________ -1 -18.1405 52.1832 99 14 192
1903060S13057 1903 19 SI MM NOT_NAMED 1903-03-03 15:00:00 NR -18.8254 52.0647 main 292 285 _____P________ -1 -18.8254 52.0647 99 14 187
1903060S13057 1903 19 SI MM NOT_NAMED 1903-03-03 18:00:00 NR -19.5402 51.9970 main 307 307 _____P________ -1 -19.5402 51.9970 99 15 183
1903060S13057 1903 19 SI MM NOT_NAMED 1903-03-03 21:00:00 NR -20.2750 51.9735 main 335 332 _____P________ -1 -20.2750 51.9735 99 15 181
1903060S13057 1903 19 SI MM NOT_NAMED 1903-03-04 00:00:00 NR -21.0199 51.9874 main 332 331 _____P________ -1 -21.0199 51.9874 99 15 178
1903060S13057 1903 19 SI MM NOT_NAMED 1903-03-04 03:00:00 NR -21.7648 52.0319 main 340 335 _____P________ -1 -21.7648 52.0319 99 15 176
1903060S13057 1903 19 SI MM NOT_NAMED 1903-03-04 06:00:00 NR -22.5000 52.1000 reunion main 356 356 _____O________ -1 -22.5000 52.1000 99 9.90000 14 176
1903060S13057 1903 19 SI MM NOT_NAMED 1903-03-04 09:00:00 NR -23.1708 52.1398 main 391 389 _____P________ -1 -23.1708 52.1398 99 13 175
1903060S13057 1903 19 SI MM NOT_NAMED 1903-03-04 12:00:00 NR -23.8358 52.2099 main 423 423 _____P________ -1 -23.8358 52.2099 99 13 173
1903060S13057 1903 19 SI MM NOT_NAMED 1903-03-04 15:00:00 NR -24.4985 52.3074 main 471 471 _____P________ -1 -24.4985 52.3074 99 13 172
1903060S13057 1903 19 SI MM NOT_NAMED 1903-03-04 18:00:00 NR -25.1625 52.4294 main 512 512 _____P________ -1 -25.1625 52.4294 99 14 170
1903060S13057 1903 19 SI MM NOT_NAMED 1903-03-04 21:00:00 NR -25.8311 52.5726 main 551 551 _____P________ -1 -25.8311 52.5726 99 14 169
1903060S13057 1903 19 SI MM NOT_NAMED 1903-03-05 00:00:00 NR -26.5078 52.7342 main 584 584 _____P________ -1 -26.5078 52.7342 99 14 167
1903060S13057 1903 19 SI MM NOT_NAMED 1903-03-05 03:00:00 NR -27.1963 52.9110 main 628 628 _____P________ -1 -27.1963 52.9110 99 14 167
1903060S13057 1903 19 SI MM NOT_NAMED 1903-03-05 06:00:00 NR -27.9000 53.1000 reunion main 678 678 _____O________ -1 -27.9000 53.1000 99 9.90000 16 167
1903060S13057 1903 19 SI MM NOT_NAMED 1903-03-05 09:00:00 NR -28.7252 53.3085 main 740 740 _____P________ -1 -28.7252 53.3085 99 17 167
1903060S13057 1903 19 SI MM NOT_NAMED 1903-03-05 12:00:00 NR -29.5774 53.5375 main 813 813 _____P________ -1 -29.5774 53.5375 99 18 167
1903060S13057 1903 19 SI MM NOT_NAMED 1903-03-05 15:00:00 NR -30.4341 53.7798 main 892 892 _____P________ -1 -30.4341 53.7798 99 18 166
1903060S13057 1903 19 SI MM NOT_NAMED 1903-03-05 18:00:00 NR -31.2729 54.0276 main 973 973 _____P________ -1 -31.2729 54.0276 99 17 166
1903060S13057 1903 19 SI MM NOT_NAMED 1903-03-05 21:00:00 NR -32.0713 54.2727 main 1056 1056 _____P________ -1 -32.0713 54.2727 99 16 165
1903060S13057 1903 19 SI MM NOT_NAMED 1903-03-06 00:00:00 NR -32.8068 54.5061 main 1126 1126 _____P________ -1 -32.8068 54.5061 99 14 165
1903060S13057 1903 19 SI MM NOT_NAMED 1903-03-06 03:00:00 NR -33.4571 54.7184 main 1197 1197 _____P________ -1 -33.4571 54.7184 99 12 165
1903060S13057 1903 19 SI MM NOT_NAMED 1903-03-06 06:00:00 NR -34.0000 54.9000 reunion main 1251 1251 _____O________ -1 -34.0000 54.9000 99 9.90000 10 164
1903060S13057 1903 19 SI MM NOT_NAMED 1903-03-06 09:00:00 NR -34.4197 55.0431 main 1291 1291 _____P________ -1 -34.4197 55.0431 99 8 164
1903060S13057 1903 19 SI MM NOT_NAMED 1903-03-06 12:00:00 NR -34.7264 55.1497 main 1323 1323 _____P________ -1 -34.7264 55.1497 99 5 164
1903060S13057 1903 19 SI MM NOT_NAMED 1903-03-06 15:00:00 NR -34.9362 55.2244 main 1347 1347 _____P________ -1 -34.9362 55.2244 99 4 165
1903060S13057 1903 19 SI MM NOT_NAMED 1903-03-06 18:00:00 NR -35.0655 55.2722 main 1370 1370 _____P________ -1 -35.0655 55.2722 99 2 164
1903060S13057 1903 19 SI MM NOT_NAMED 1903-03-06 21:00:00 NR -35.1305 55.2982 main 1370 1370 _____P________ -1 -35.1305 55.2982 99 1 157
1903060S13057 1903 19 SI MM NOT_NAMED 1903-03-07 00:00:00 NR -35.1471 55.3079 main 1370 1370 _____P________ -1 -35.1471 55.3079 99 0 0
1903060S13057 1903 19 SI MM NOT_NAMED 1903-03-07 03:00:00 NR -35.1316 55.3067 main 1370 1370 _____P________ -1 -35.1316 55.3067 99 0 0
1903060S13057 1903 19 SI MM NOT_NAMED 1903-03-07 06:00:00 NR -35.1000 55.3000 reunion main 1370 _____O________ -1 -35.1000 55.3000 99 9.90000 1 323

IBTrACS Databaseについて

本データベースは、米国NOAAが公開する1842年以降の世界の熱帯低気圧のベストトラックデータアーカイブInternational Best Track Archive for Climate Stewardship (IBTrACS)を、ウェブで閲覧しやすい形式に変換したものです。

最終更新日:2021-12-01